Terminal Aerodrome Forecast
Issued by NWS

Home | Current Version | Previous Version | Graphics & Text | Print | Product List | Glossary On
Versions: 1 2 3 4 5 6 7 8 9 10 11 12 13 14 15 16 17 18 19
512
FTUS42 KMHX 172327
TAFOAJ
TAF
KOAJ 172327Z 1800/1824 VRB04KT P6SM BKN050
      TEMPO 1800/1802 BKN009
     FM180600 VRB04KT P6SM SCT010 BKN040
     FM181300 22007KT P6SM SCT040
     FM181700 20009KT P6SM VCTS BKN040CB
      AMD LTD TO CLD VIS AND WIND=

USA.gov is the U.S. government's official web portal to all federal, state and local government web resources and services.